sensor_id;sensor_type;location;lat;lon;timestamp;P1;durP1;ratioP1;P2;durP2;ratioP2
22417;SDS011;11376;50.932;4.442;2022-08-19T00:01:41;18.63;;;11.50;;
22417;SDS011;11376;50.932;4.442;2022-08-19T00:04:08;17.70;;;11.23;;
22417;SDS011;11376;50.932;4.442;2022-08-19T00:06:36;18.10;;;11.20;;
22417;SDS011;11376;50.932;4.442;2022-08-19T00:09:04;21.63;;;12.18;;
22417;SDS011;11376;50.932;4.442;2022-08-19T00:11:31;20.40;;;11.40;;
22417;SDS011;11376;50.932;4.442;2022-08-19T00:13:58;21.70;;;13.45;;
22417;SDS011;11376;50.932;4.442;2022-08-19T00:16:24;21.50;;;12.70;;
22417;SDS011;11376;50.932;4.442;2022-08-19T00:18:50;26.33;;;13.95;;
22417;SDS011;11376;50.932;4.442;2022-08-19T00:21:15;22.20;;;13.52;;
22417;SDS011;11376;50.932;4.442;2022-08-19T00:23:41;26.27;;;14.73;;
22417;SDS011;11376;50.932;4.442;2022-08-19T00:26:08;24.13;;;13.85;;
22417;SDS011;11376;50.932;4.442;2022-08-19T00:28:35;27.65;;;15.02;;
22417;SDS011;11376;50.932;4.442;2022-08-19T00:31:04;26.88;;;15.57;;
22417;SDS011;11376;50.932;4.442;2022-08-19T00:33:31;27.73;;;14.88;;
22417;SDS011;11376;50.932;4.442;2022-08-19T00:35:58;29.00;;;15.93;;
22417;SDS011;11376;50.932;4.442;2022-08-19T00:38:24;30.92;;;16.58;;
22417;SDS011;11376;50.932;4.442;2022-08-19T00:40:50;29.30;;;17.02;;
22417;SDS011;11376;50.932;4.442;2022-08-19T00:43:18;32.05;;;16.65;;
22417;SDS011;11376;50.932;4.442;2022-08-19T00:45:46;32.95;;;18.08;;
22417;SDS011;11376;50.932;4.442;2022-08-19T00:48:13;34.75;;;18.23;;
22417;SDS011;11376;50.932;4.442;2022-08-19T00:50:41;29.73;;;17.35;;
22417;SDS011;11376;50.932;4.442;2022-08-19T00:53:08;30.35;;;17.05;;
22417;SDS011;11376;50.932;4.442;2022-08-19T00:55:37;35.20;;;18.42;;
22417;SDS011;11376;50.932;4.442;2022-08-19T00:58:05;36.83;;;19.15;;
22417;SDS011;11376;50.932;4.442;2022-08-19T01:00:35;35.10;;;19.52;;
22417;SDS011;11376;50.932;4.442;2022-08-19T01:03:02;40.60;;;19.67;;
22417;SDS011;11376;50.932;4.442;2022-08-19T01:05:34;38.80;;;20.38;;
22417;SDS011;11376;50.932;4.442;2022-08-19T01:08:01;44.30;;;20.92;;
22417;SDS011;11376;50.932;4.442;2022-08-19T01:10:29;40.53;;;20.40;;
22417;SDS011;11376;50.932;4.442;2022-08-19T01:12:59;46.35;;;22.00;;
22417;SDS011;11376;50.932;4.442;2022-08-19T01:15:29;42.63;;;20.73;;
22417;SDS011;11376;50.932;4.442;2022-08-19T01:17:59;43.38;;;22.30;;
22417;SDS011;11376;50.932;4.442;2022-08-19T01:20:29;43.80;;;22.60;;
22417;SDS011;11376;50.932;4.442;2022-08-19T01:22:56;45.83;;;22.90;;
22417;SDS011;11376;50.932;4.442;2022-08-19T01:25:27;49.20;;;22.90;;
22417;SDS011;11376;50.932;4.442;2022-08-19T01:27:56;43.70;;;22.27;;
22417;SDS011;11376;50.932;4.442;2022-08-19T01:30:24;49.58;;;22.83;;
22417;SDS011;11376;50.932;4.442;2022-08-19T01:32:52;48.88;;;23.48;;
22417;SDS011;11376;50.932;4.442;2022-08-19T01:35:18;53.30;;;24.40;;
22417;SDS011;11376;50.932;4.442;2022-08-19T01:37:47;49.60;;;24.23;;
22417;SDS011;11376;50.932;4.442;2022-08-19T01:40:17;49.67;;;24.55;;
22417;SDS011;11376;50.932;4.442;2022-08-19T01:42:45;52.28;;;22.98;;
22417;SDS011;11376;50.932;4.442;2022-08-19T01:45:15;48.30;;;23.95;;
22417;SDS011;11376;50.932;4.442;2022-08-19T01:47:41;45.55;;;22.33;;
22417;SDS011;11376;50.932;4.442;2022-08-19T01:50:07;42.03;;;21.83;;
22417;SDS011;11376;50.932;4.442;2022-08-19T01:52:38;43.67;;;21.08;;
22417;SDS011;11376;50.932;4.442;2022-08-19T01:55:07;45.40;;;22.65;;
22417;SDS011;11376;50.932;4.442;2022-08-19T01:57:35;43.88;;;22.17;;
22417;SDS011;11376;50.932;4.442;2022-08-19T02:00:05;43.47;;;21.13;;
22417;SDS011;11376;50.932;4.442;2022-08-19T02:02:33;45.50;;;22.13;;
22417;SDS011;11376;50.932;4.442;2022-08-19T02:04:58;44.08;;;20.92;;
22417;SDS011;11376;50.932;4.442;2022-08-19T02:07:24;45.53;;;21.08;;
22417;SDS011;11376;50.932;4.442;2022-08-19T02:09:50;42.70;;;21.67;;
22417;SDS011;11376;50.932;4.442;2022-08-19T02:12:15;46.47;;;22.20;;
22417;SDS011;11376;50.932;4.442;2022-08-19T02:14:41;40.50;;;21.70;;
22417;SDS011;11376;50.932;4.442;2022-08-19T02:17:07;37.47;;;20.45;;
22417;SDS011;11376;50.932;4.442;2022-08-19T02:19:33;40.22;;;20.75;;
22417;SDS011;11376;50.932;4.442;2022-08-19T02:21:59;40.80;;;20.67;;
22417;SDS011;11376;50.932;4.442;2022-08-19T02:24:26;38.33;;;20.30;;
22417;SDS011;11376;50.932;4.442;2022-08-19T02:26:53;40.15;;;20.30;;
22417;SDS011;11376;50.932;4.442;2022-08-19T02:29:18;36.13;;;18.98;;
22417;SDS011;11376;50.932;4.442;2022-08-19T02:31:45;34.13;;;18.65;;
22417;SDS011;11376;50.932;4.442;2022-08-19T02:34:11;31.65;;;17.45;;
22417;SDS011;11376;50.932;4.442;2022-08-19T02:36:36;33.58;;;17.45;;
22417;SDS011;11376;50.932;4.442;2022-08-19T02:39:02;30.10;;;16.73;;
22417;SDS011;11376;50.932;4.442;2022-08-19T02:41:29;27.90;;;13.73;;
22417;SDS011;11376;50.932;4.442;2022-08-19T02:43:58;26.42;;;13.70;;
22417;SDS011;11376;50.932;4.442;2022-08-19T02:46:26;28.38;;;14.00;;
22417;SDS011;11376;50.932;4.442;2022-08-19T02:48:55;25.00;;;12.95;;
22417;SDS011;11376;50.932;4.442;2022-08-19T02:51:24;27.13;;;14.05;;
22417;SDS011;11376;50.932;4.442;2022-08-19T02:53:53;28.40;;;13.30;;
22417;SDS011;11376;50.932;4.442;2022-08-19T02:56:19;25.83;;;13.07;;
22417;SDS011;11376;50.932;4.442;2022-08-19T02:58:45;25.75;;;14.57;;
22417;SDS011;11376;50.932;4.442;2022-08-19T03:01:18;25.55;;;13.93;;
22417;SDS011;11376;50.932;4.442;2022-08-19T03:03:46;25.77;;;13.05;;
22417;SDS011;11376;50.932;4.442;2022-08-19T03:06:12;24.77;;;13.85;;
22417;SDS011;11376;50.932;4.442;2022-08-19T03:08:40;25.10;;;13.07;;
22417;SDS011;11376;50.932;4.442;2022-08-19T03:11:12;28.30;;;13.32;;
22417;SDS011;11376;50.932;4.442;2022-08-19T03:13:57;26.67;;;12.52;;
22417;SDS011;11376;50.932;4.442;2022-08-19T03:16:25;24.02;;;11.75;;
22417;SDS011;11376;50.932;4.442;2022-08-19T03:18:52;23.77;;;12.68;;
22417;SDS011;11376;50.932;4.442;2022-08-19T03:21:22;23.00;;;11.60;;
22417;SDS011;11376;50.932;4.442;2022-08-19T03:23:53;21.42;;;11.10;;
22417;SDS011;11376;50.932;4.442;2022-08-19T03:26:19;25.15;;;11.90;;
22417;SDS011;11376;50.932;4.442;2022-08-19T03:28:45;23.95;;;12.43;;
22417;SDS011;11376;50.932;4.442;2022-08-19T03:31:14;25.10;;;12.35;;
22417;SDS011;11376;50.932;4.442;2022-08-19T03:33:42;24.02;;;11.90;;
22417;SDS011;11376;50.932;4.442;2022-08-19T03:36:11;30.73;;;12.95;;
22417;SDS011;11376;50.932;4.442;2022-08-19T03:38:38;30.17;;;12.88;;
22417;SDS011;11376;50.932;4.442;2022-08-19T03:41:06;25.90;;;12.90;;
22417;SDS011;11376;50.932;4.442;2022-08-19T03:43:35;25.13;;;12.55;;
22417;SDS011;11376;50.932;4.442;2022-08-19T03:46:03;22.30;;;11.50;;
22417;SDS011;11376;50.932;4.442;2022-08-19T03:48:31;25.67;;;12.20;;
22417;SDS011;11376;50.932;4.442;2022-08-19T03:50:57;23.02;;;12.00;;
22417;SDS011;11376;50.932;4.442;2022-08-19T03:53:24;27.45;;;12.60;;
22417;SDS011;11376;50.932;4.442;2022-08-19T03:55:55;23.75;;;12.13;;
22417;SDS011;11376;50.932;4.442;2022-08-19T03:58:22;25.55;;;11.00;;
22417;SDS011;11376;50.932;4.442;2022-08-19T04:00:47;25.65;;;12.27;;
22417;SDS011;11376;50.932;4.442;2022-08-19T04:03:14;20.58;;;11.48;;
22417;SDS011;11376;50.932;4.442;2022-08-19T04:05:40;22.60;;;10.95;;
22417;SDS011;11376;50.932;4.442;2022-08-19T04:08:05;25.48;;;10.68;;
22417;SDS011;11376;50.932;4.442;2022-08-19T04:10:37;23.52;;;10.73;;
22417;SDS011;11376;50.932;4.442;2022-08-19T04:13:04;25.77;;;11.82;;
22417;SDS011;11376;50.932;4.442;2022-08-19T04:15:31;20.38;;;10.70;;
22417;SDS011;11376;50.932;4.442;2022-08-19T04:18:00;19.23;;;10.10;;
22417;SDS011;11376;50.932;4.442;2022-08-19T04:20:26;20.13;;;9.63;;
22417;SDS011;11376;50.932;4.442;2022-08-19T04:22:52;22.27;;;11.00;;
22417;SDS011;11376;50.932;4.442;2022-08-19T04:25:17;26.30;;;10.57;;
22417;SDS011;11376;50.932;4.442;2022-08-19T04:27:43;21.75;;;10.80;;
22417;SDS011;11376;50.932;4.442;2022-08-19T04:30:11;20.23;;;9.93;;
22417;SDS011;11376;50.932;4.442;2022-08-19T04:32:38;20.95;;;10.15;;
22417;SDS011;11376;50.932;4.442;2022-08-19T04:35:03;25.25;;;10.73;;
22417;SDS011;11376;50.932;4.442;2022-08-19T04:37:29;20.38;;;9.55;;
22417;SDS011;11376;50.932;4.442;2022-08-19T04:39:58;19.58;;;9.88;;
22417;SDS011;11376;50.932;4.442;2022-08-19T04:42:43;17.67;;;8.88;;
22417;SDS011;11376;50.932;4.442;2022-08-19T04:45:11;20.70;;;10.32;;
22417;SDS011;11376;50.932;4.442;2022-08-19T04:47:39;19.08;;;9.25;;
22417;SDS011;11376;50.932;4.442;2022-08-19T04:50:06;22.77;;;10.55;;
22417;SDS011;11376;50.932;4.442;2022-08-19T04:52:37;17.95;;;9.57;;
22417;SDS011;11376;50.932;4.442;2022-08-19T04:55:07;21.50;;;9.32;;
22417;SDS011;11376;50.932;4.442;2022-08-19T04:57:35;17.77;;;9.48;;
22417;SDS011;11376;50.932;4.442;2022-08-19T05:00:05;21.85;;;10.35;;
22417;SDS011;11376;50.932;4.442;2022-08-19T05:02:33;20.77;;;10.73;;
22417;SDS011;11376;50.932;4.442;2022-08-19T05:04:59;19.70;;;9.45;;
22417;SDS011;11376;50.932;4.442;2022-08-19T05:07:25;21.83;;;9.38;;
22417;SDS011;11376;50.932;4.442;2022-08-19T05:09:52;21.80;;;9.73;;
22417;SDS011;11376;50.932;4.442;2022-08-19T05:12:17;19.05;;;9.65;;
22417;SDS011;11376;50.932;4.442;2022-08-19T05:14:44;21.10;;;9.93;;
22417;SDS011;11376;50.932;4.442;2022-08-19T05:17:12;23.15;;;9.50;;
22417;SDS011;11376;50.932;4.442;2022-08-19T05:19:38;23.23;;;9.70;;
22417;SDS011;11376;50.932;4.442;2022-08-19T05:22:22;23.92;;;8.60;;
22417;SDS011;11376;50.932;4.442;2022-08-19T05:24:57;17.85;;;9.15;;
22417;SDS011;11376;50.932;4.442;2022-08-19T05:27:24;23.02;;;9.43;;
22417;SDS011;11376;50.932;4.442;2022-08-19T05:29:49;23.20;;;9.45;;
22417;SDS011;11376;50.932;4.442;2022-08-19T05:32:15;20.58;;;9.13;;
22417;SDS011;11376;50.932;4.442;2022-08-19T05:34:41;20.40;;;8.73;;
22417;SDS011;11376;50.932;4.442;2022-08-19T05:37:07;19.95;;;8.07;;
22417;SDS011;11376;50.932;4.442;2022-08-19T05:39:34;18.98;;;7.95;;
22417;SDS011;11376;50.932;4.442;2022-08-19T05:42:02;20.58;;;8.38;;
22417;SDS011;11376;50.932;4.442;2022-08-19T05:44:32;18.23;;;8.02;;
22417;SDS011;11376;50.932;4.442;2022-08-19T05:47:01;17.30;;;7.65;;
22417;SDS011;11376;50.932;4.442;2022-08-19T05:49:29;17.23;;;7.30;;
22417;SDS011;11376;50.932;4.442;2022-08-19T05:51:56;16.50;;;8.40;;
22417;SDS011;11376;50.932;4.442;2022-08-19T05:54:24;18.25;;;7.60;;
22417;SDS011;11376;50.932;4.442;2022-08-19T05:56:51;18.83;;;7.85;;
22417;SDS011;11376;50.932;4.442;2022-08-19T05:59:17;18.33;;;7.28;;
22417;SDS011;11376;50.932;4.442;2022-08-19T06:01:45;17.23;;;7.63;;
22417;SDS011;11376;50.932;4.442;2022-08-19T06:04:15;20.65;;;8.27;;
22417;SDS011;11376;50.932;4.442;2022-08-19T06:06:43;15.73;;;7.68;;
22417;SDS011;11376;50.932;4.442;2022-08-19T06:09:09;19.35;;;8.40;;
22417;SDS011;11376;50.932;4.442;2022-08-19T06:11:40;24.75;;;8.02;;
22417;SDS011;11376;50.932;4.442;2022-08-19T06:14:12;20.92;;;8.32;;
22417;SDS011;11376;50.932;4.442;2022-08-19T06:16:40;15.93;;;7.38;;
22417;SDS011;11376;50.932;4.442;2022-08-19T06:19:08;15.07;;;7.85;;
22417;SDS011;11376;50.932;4.442;2022-08-19T06:21:36;16.92;;;7.72;;
22417;SDS011;11376;50.932;4.442;2022-08-19T06:24:05;17.92;;;8.30;;
22417;SDS011;11376;50.932;4.442;2022-08-19T06:26:35;20.00;;;8.13;;
22417;SDS011;11376;50.932;4.442;2022-08-19T06:29:03;17.35;;;7.05;;
22417;SDS011;11376;50.932;4.442;2022-08-19T06:31:31;13.30;;;6.10;;
22417;SDS011;11376;50.932;4.442;2022-08-19T06:33:58;16.50;;;6.72;;
22417;SDS011;11376;50.932;4.442;2022-08-19T06:36:27;16.83;;;6.25;;
22417;SDS011;11376;50.932;4.442;2022-08-19T06:38:58;11.48;;;5.68;;
22417;SDS011;11376;50.932;4.442;2022-08-19T06:41:26;12.27;;;5.70;;
22417;SDS011;11376;50.932;4.442;2022-08-19T06:43:53;15.68;;;5.97;;
22417;SDS011;11376;50.932;4.442;2022-08-19T06:46:19;16.85;;;6.00;;
22417;SDS011;11376;50.932;4.442;2022-08-19T06:48:46;13.93;;;6.57;;
22417;SDS011;11376;50.932;4.442;2022-08-19T06:51:13;11.15;;;5.30;;
22417;SDS011;11376;50.932;4.442;2022-08-19T06:53:41;19.95;;;5.93;;
22417;SDS011;11376;50.932;4.442;2022-08-19T06:56:11;10.45;;;5.30;;
22417;SDS011;11376;50.932;4.442;2022-08-19T06:58:37;13.32;;;5.38;;
22417;SDS011;11376;50.932;4.442;2022-08-19T07:01:03;11.73;;;5.38;;
22417;SDS011;11376;50.932;4.442;2022-08-19T07:03:30;10.52;;;4.70;;
22417;SDS011;11376;50.932;4.442;2022-08-19T07:05:57;11.98;;;4.30;;
22417;SDS011;11376;50.932;4.442;2022-08-19T07:08:27;12.30;;;4.85;;
22417;SDS011;11376;50.932;4.442;2022-08-19T07:10:53;11.75;;;5.00;;
22417;SDS011;11376;50.932;4.442;2022-08-19T07:13:19;9.70;;;4.88;;
22417;SDS011;11376;50.932;4.442;2022-08-19T07:15:46;9.77;;;4.63;;
22417;SDS011;11376;50.932;4.442;2022-08-19T07:18:12;12.48;;;5.28;;
22417;SDS011;11376;50.932;4.442;2022-08-19T07:20:38;11.77;;;4.90;;
22417;SDS011;11376;50.932;4.442;2022-08-19T07:23:04;10.43;;;4.60;;
22417;SDS011;11376;50.932;4.442;2022-08-19T07:25:30;11.50;;;5.25;;
22417;SDS011;11376;50.932;4.442;2022-08-19T07:27:56;8.52;;;4.50;;
22417;SDS011;11376;50.932;4.442;2022-08-19T07:30:21;9.35;;;4.53;;
22417;SDS011;11376;50.932;4.442;2022-08-19T07:32:48;10.13;;;4.68;;
22417;SDS011;11376;50.932;4.442;2022-08-19T07:35:15;10.02;;;3.80;;
22417;SDS011;11376;50.932;4.442;2022-08-19T07:37:44;6.90;;;3.33;;
22417;SDS011;11376;50.932;4.442;2022-08-19T07:40:10;9.45;;;4.20;;
22417;SDS011;11376;50.932;4.442;2022-08-19T07:42:37;7.85;;;3.92;;
22417;SDS011;11376;50.932;4.442;2022-08-19T07:45:02;6.55;;;3.25;;
22417;SDS011;11376;50.932;4.442;2022-08-19T07:47:29;10.13;;;3.67;;
22417;SDS011;11376;50.932;4.442;2022-08-19T07:49:55;6.55;;;3.03;;
22417;SDS011;11376;50.932;4.442;2022-08-19T07:52:21;7.85;;;3.53;;
22417;SDS011;11376;50.932;4.442;2022-08-19T07:54:47;7.75;;;3.25;;
22417;SDS011;11376;50.932;4.442;2022-08-19T07:57:14;8.00;;;3.70;;
22417;SDS011;11376;50.932;4.442;2022-08-19T07:59:40;7.05;;;3.40;;
22417;SDS011;11376;50.932;4.442;2022-08-19T08:02:06;6.63;;;3.25;;
22417;SDS011;11376;50.932;4.442;2022-08-19T08:04:33;9.18;;;3.30;;
22417;SDS011;11376;50.932;4.442;2022-08-19T08:07:17;5.90;;;3.08;;
22417;SDS011;11376;50.932;4.442;2022-08-19T08:10:03;5.88;;;3.20;;
22417;SDS011;11376;50.932;4.442;2022-08-19T08:12:32;7.55;;;2.83;;
22417;SDS011;11376;50.932;4.442;2022-08-19T08:15:02;5.25;;;2.47;;
22417;SDS011;11376;50.932;4.442;2022-08-19T08:17:30;4.40;;;2.38;;
22417;SDS011;11376;50.932;4.442;2022-08-19T08:19:57;4.68;;;2.35;;
22417;SDS011;11376;50.932;4.442;2022-08-19T08:22:23;4.63;;;2.20;;
22417;SDS011;11376;50.932;4.442;2022-08-19T08:25:12;5.80;;;2.38;;
22417;SDS011;11376;50.932;4.442;2022-08-19T08:27:42;7.60;;;2.30;;
22417;SDS011;11376;50.932;4.442;2022-08-19T08:30:11;6.50;;;2.20;;
22417;SDS011;11376;50.932;4.442;2022-08-19T08:32:40;3.92;;;1.73;;
22417;SDS011;11376;50.932;4.442;2022-08-19T08:35:07;5.57;;;1.88;;
22417;SDS011;11376;50.932;4.442;2022-08-19T08:37:35;9.55;;;2.20;;
22417;SDS011;11376;50.932;4.442;2022-08-19T08:40:06;5.85;;;2.15;;
22417;SDS011;11376;50.932;4.442;2022-08-19T08:43:34;4.25;;;1.88;;
22417;SDS011;11376;50.932;4.442;2022-08-19T08:45:44;10.57;;;2.38;;
22417;SDS011;11376;50.932;4.442;2022-08-19T08:48:35;4.25;;;2.30;;
22417;SDS011;11376;50.932;4.442;2022-08-19T08:51:12;7.90;;;2.53;;
22417;SDS011;11376;50.932;4.442;2022-08-19T08:53:43;5.28;;;2.55;;
22417;SDS011;11376;50.932;4.442;2022-08-19T08:56:11;6.32;;;2.63;;
22417;SDS011;11376;50.932;4.442;2022-08-19T09:01:33;12.23;;;3.17;;
22417;SDS011;11376;50.932;4.442;2022-08-19T09:04:02;5.95;;;2.63;;
22417;SDS011;11376;50.932;4.442;2022-08-19T09:06:40;8.00;;;2.30;;
22417;SDS011;11376;50.932;4.442;2022-08-19T09:12:09;8.23;;;2.42;;
22417;SDS011;11376;50.932;4.442;2022-08-19T09:17:25;7.43;;;2.88;;
22417;SDS011;11376;50.932;4.442;2022-08-19T09:20:18;7.25;;;2.60;;
22417;SDS011;11376;50.932;4.442;2022-08-19T09:22:45;4.60;;;2.45;;
22417;SDS011;11376;50.932;4.442;2022-08-19T09:25:13;7.30;;;2.80;;
22417;SDS011;11376;50.932;4.442;2022-08-19T09:27:41;5.00;;;2.33;;
22417;SDS011;11376;50.932;4.442;2022-08-19T09:30:08;6.75;;;2.72;;
22417;SDS011;11376;50.932;4.442;2022-08-19T09:32:37;6.68;;;2.92;;
22417;SDS011;11376;50.932;4.442;2022-08-19T09:35:07;6.55;;;2.55;;
22417;SDS011;11376;50.932;4.442;2022-08-19T09:37:33;7.38;;;2.55;;
22417;SDS011;11376;50.932;4.442;2022-08-19T09:39:59;4.57;;;2.50;;
22417;SDS011;11376;50.932;4.442;2022-08-19T09:42:24;4.95;;;2.30;;
22417;SDS011;11376;50.932;4.442;2022-08-19T09:44:50;5.10;;;2.35;;
22417;SDS011;11376;50.932;4.442;2022-08-19T09:47:15;8.40;;;3.20;;
22417;SDS011;11376;50.932;4.442;2022-08-19T09:49:42;6.72;;;2.60;;
22417;SDS011;11376;50.932;4.442;2022-08-19T09:52:08;4.68;;;2.60;;
22417;SDS011;11376;50.932;4.442;2022-08-19T09:54:35;5.85;;;3.13;;
22417;SDS011;11376;50.932;4.442;2022-08-19T09:57:02;4.70;;;2.40;;
22417;SDS011;11376;50.932;4.442;2022-08-19T09:59:28;7.13;;;2.78;;
22417;SDS011;11376;50.932;4.442;2022-08-19T10:01:54;5.00;;;2.50;;
22417;SDS011;11376;50.932;4.442;2022-08-19T10:04:19;5.57;;;2.67;;
22417;SDS011;11376;50.932;4.442;2022-08-19T10:06:46;7.88;;;2.65;;
22417;SDS011;11376;50.932;4.442;2022-08-19T10:09:13;8.48;;;2.25;;
22417;SDS011;11376;50.932;4.442;2022-08-19T10:11:41;5.63;;;2.20;;
22417;SDS011;11376;50.932;4.442;2022-08-19T10:14:08;4.13;;;2.30;;
22417;SDS011;11376;50.932;4.442;2022-08-19T10:16:35;7.80;;;2.40;;
22417;SDS011;11376;50.932;4.442;2022-08-19T10:19:02;7.28;;;2.40;;
22417;SDS011;11376;50.932;4.442;2022-08-19T10:21:30;6.13;;;2.30;;
22417;SDS011;11376;50.932;4.442;2022-08-19T10:23:58;3.85;;;2.22;;
22417;SDS011;11376;50.932;4.442;2022-08-19T10:26:28;5.63;;;2.50;;
22417;SDS011;11376;50.932;4.442;2022-08-19T10:28:56;5.22;;;2.13;;
22417;SDS011;11376;50.932;4.442;2022-08-19T10:31:23;4.40;;;2.10;;
22417;SDS011;11376;50.932;4.442;2022-08-19T10:33:52;4.47;;;2.40;;
22417;SDS011;11376;50.932;4.442;2022-08-19T10:36:23;6.07;;;2.20;;
22417;SDS011;11376;50.932;4.442;2022-08-19T10:38:52;3.15;;;1.70;;
22417;SDS011;11376;50.932;4.442;2022-08-19T10:41:24;4.55;;;1.90;;
22417;SDS011;11376;50.932;4.442;2022-08-19T10:43:52;4.07;;;2.00;;
22417;SDS011;11376;50.932;4.442;2022-08-19T10:46:19;3.22;;;1.60;;
22417;SDS011;11376;50.932;4.442;2022-08-19T10:48:47;6.50;;;1.70;;
22417;SDS011;11376;50.932;4.442;2022-08-19T10:51:13;3.42;;;1.70;;
22417;SDS011;11376;50.932;4.442;2022-08-19T10:53:57;3.53;;;1.80;;
22417;SDS011;11376;50.932;4.442;2022-08-19T10:56:24;2.65;;;1.38;;
22417;SDS011;11376;50.932;4.442;2022-08-19T10:59:08;4.13;;;1.80;;
22417;SDS011;11376;50.932;4.442;2022-08-19T11:01:34;3.50;;;1.95;;
22417;SDS011;11376;50.932;4.442;2022-08-19T11:04:01;6.80;;;2.42;;
22417;SDS011;11376;50.932;4.442;2022-08-19T11:06:28;4.90;;;2.20;;
22417;SDS011;11376;50.932;4.442;2022-08-19T11:08:55;5.55;;;2.13;;
22417;SDS011;11376;50.932;4.442;2022-08-19T11:11:21;5.40;;;2.40;;
22417;SDS011;11376;50.932;4.442;2022-08-19T11:13:48;6.63;;;2.70;;
22417;SDS011;11376;50.932;4.442;2022-08-19T11:16:19;5.70;;;2.42;;
22417;SDS011;11376;50.932;4.442;2022-08-19T11:18:48;4.70;;;2.53;;
22417;SDS011;11376;50.932;4.442;2022-08-19T11:21:16;5.20;;;2.47;;
22417;SDS011;11376;50.932;4.442;2022-08-19T11:23:44;7.38;;;2.17;;
22417;SDS011;11376;50.932;4.442;2022-08-19T11:26:12;5.45;;;2.28;;
22417;SDS011;11376;50.932;4.442;2022-08-19T11:28:38;4.97;;;1.80;;
22417;SDS011;11376;50.932;4.442;2022-08-19T11:31:09;6.90;;;1.70;;
22417;SDS011;11376;50.932;4.442;2022-08-19T11:33:36;5.30;;;1.50;;
22417;SDS011;11376;50.932;4.442;2022-08-19T11:36:02;4.55;;;1.48;;
22417;SDS011;11376;50.932;4.442;2022-08-19T11:38:28;3.13;;;1.40;;
22417;SDS011;11376;50.932;4.442;2022-08-19T11:40:58;3.65;;;1.50;;
22417;SDS011;11376;50.932;4.442;2022-08-19T11:43:25;3.45;;;1.60;;
22417;SDS011;11376;50.932;4.442;2022-08-19T11:45:52;3.90;;;1.42;;
22417;SDS011;11376;50.932;4.442;2022-08-19T11:48:18;2.28;;;1.20;;
22417;SDS011;11376;50.932;4.442;2022-08-19T11:50:47;2.92;;;1.40;;
22417;SDS011;11376;50.932;4.442;2022-08-19T11:53:15;4.30;;;1.63;;
22417;SDS011;11376;50.932;4.442;2022-08-19T11:55:43;3.60;;;1.85;;
22417;SDS011;11376;50.932;4.442;2022-08-19T11:58:09;3.97;;;1.75;;
22417;SDS011;11376;50.932;4.442;2022-08-19T12:00:36;4.78;;;1.75;;
22417;SDS011;11376;50.932;4.442;2022-08-19T12:03:02;3.55;;;1.75;;
22417;SDS011;11376;50.932;4.442;2022-08-19T12:05:28;3.67;;;1.80;;
22417;SDS011;11376;50.932;4.442;2022-08-19T12:07:54;3.67;;;2.20;;
22417;SDS011;11376;50.932;4.442;2022-08-19T12:10:20;5.78;;;2.17;;
22417;SDS011;11376;50.932;4.442;2022-08-19T12:12:45;5.78;;;2.35;;
22417;SDS011;11376;50.932;4.442;2022-08-19T12:15:11;5.57;;;2.38;;
22417;SDS011;11376;50.932;4.442;2022-08-19T12:17:37;6.13;;;3.10;;
22417;SDS011;11376;50.932;4.442;2022-08-19T12:20:04;6.80;;;3.47;;
22417;SDS011;11376;50.932;4.442;2022-08-19T12:22:31;6.35;;;3.60;;
22417;SDS011;11376;50.932;4.442;2022-08-19T12:24:56;5.38;;;3.67;;
22417;SDS011;11376;50.932;4.442;2022-08-19T12:27:23;6.20;;;3.67;;
22417;SDS011;11376;50.932;4.442;2022-08-19T12:29:48;6.40;;;3.42;;
22417;SDS011;11376;50.932;4.442;2022-08-19T12:32:14;7.15;;;3.72;;
22417;SDS011;11376;50.932;4.442;2022-08-19T12:34:40;3.90;;;2.75;;
22417;SDS011;11376;50.932;4.442;2022-08-19T12:37:07;5.65;;;3.45;;
22417;SDS011;11376;50.932;4.442;2022-08-19T12:39:37;5.15;;;2.75;;
22417;SDS011;11376;50.932;4.442;2022-08-19T12:42:06;4.93;;;2.08;;
22417;SDS011;11376;50.932;4.442;2022-08-19T12:44:33;5.20;;;2.15;;
22417;SDS011;11376;50.932;4.442;2022-08-19T12:46:59;5.50;;;2.30;;
22417;SDS011;11376;50.932;4.442;2022-08-19T12:49:27;5.55;;;2.85;;
22417;SDS011;11376;50.932;4.442;2022-08-19T12:51:53;5.97;;;2.45;;
22417;SDS011;11376;50.932;4.442;2022-08-19T12:54:19;5.40;;;2.17;;
22417;SDS011;11376;50.932;4.442;2022-08-19T12:56:45;4.32;;;2.20;;
22417;SDS011;11376;50.932;4.442;2022-08-19T12:59:10;3.03;;;1.83;;
22417;SDS011;11376;50.932;4.442;2022-08-19T13:01:36;6.60;;;2.35;;
22417;SDS011;11376;50.932;4.442;2022-08-19T13:04:03;4.07;;;2.20;;
22417;SDS011;11376;50.932;4.442;2022-08-19T13:06:28;4.13;;;1.67;;
22417;SDS011;11376;50.932;4.442;2022-08-19T13:08:55;3.15;;;1.48;;
22417;SDS011;11376;50.932;4.442;2022-08-19T13:11:21;6.57;;;1.75;;
22417;SDS011;11376;50.932;4.442;2022-08-19T13:13:51;2.53;;;1.38;;
22417;SDS011;11376;50.932;4.442;2022-08-19T13:16:20;2.17;;;1.25;;
22417;SDS011;11376;50.932;4.442;2022-08-19T13:18:46;1.30;;;0.90;;
22417;SDS011;11376;50.932;4.442;2022-08-19T13:21:13;2.22;;;0.70;;
22417;SDS011;11376;50.932;4.442;2022-08-19T13:23:39;1.67;;;1.00;;
22417;SDS011;11376;50.932;4.442;2022-08-19T13:26:06;1.85;;;0.90;;
22417;SDS011;11376;50.932;4.442;2022-08-19T13:28:33;3.20;;;1.25;;
22417;SDS011;11376;50.932;4.442;2022-08-19T13:31:18;2.70;;;1.17;;
22417;SDS011;11376;50.932;4.442;2022-08-19T13:34:09;2.97;;;0.90;;
22417;SDS011;11376;50.932;4.442;2022-08-19T13:36:35;4.35;;;1.00;;
22417;SDS011;11376;50.932;4.442;2022-08-19T13:39:02;2.33;;;0.88;;
22417;SDS011;11376;50.932;4.442;2022-08-19T13:41:28;2.72;;;1.00;;
22417;SDS011;11376;50.932;4.442;2022-08-19T13:43:55;1.52;;;0.88;;
22417;SDS011;11376;50.932;4.442;2022-08-19T13:46:21;2.22;;;0.73;;
22417;SDS011;11376;50.932;4.442;2022-08-19T13:48:47;2.50;;;0.95;;
22417;SDS011;11376;50.932;4.442;2022-08-19T13:51:16;1.92;;;0.93;;
22417;SDS011;11376;50.932;4.442;2022-08-19T13:53:42;3.22;;;0.80;;
22417;SDS011;11376;50.932;4.442;2022-08-19T13:56:09;2.58;;;1.20;;
22417;SDS011;11376;50.932;4.442;2022-08-19T13:58:38;2.50;;;1.20;;
22417;SDS011;11376;50.932;4.442;2022-08-19T14:01:04;1.33;;;0.70;;
22417;SDS011;11376;50.932;4.442;2022-08-19T14:03:31;2.63;;;0.80;;
22417;SDS011;11376;50.932;4.442;2022-08-19T14:05:58;3.38;;;0.75;;
22417;SDS011;11376;50.932;4.442;2022-08-19T14:08:24;1.10;;;0.60;;
22417;SDS011;11376;50.932;4.442;2022-08-19T14:10:50;2.50;;;0.52;;
22417;SDS011;11376;50.932;4.442;2022-08-19T14:13:17;1.65;;;0.50;;
22417;SDS011;11376;50.932;4.442;2022-08-19T14:15:45;2.67;;;0.70;;
22417;SDS011;11376;50.932;4.442;2022-08-19T14:18:12;0.90;;;0.60;;
22417;SDS011;11376;50.932;4.442;2022-08-19T14:20:38;1.42;;;0.77;;
22417;SDS011;11376;50.932;4.442;2022-08-19T14:23:04;2.58;;;1.10;;
22417;SDS011;11376;50.932;4.442;2022-08-19T14:25:33;2.80;;;1.00;;
22417;SDS011;11376;50.932;4.442;2022-08-19T14:27:59;2.75;;;0.98;;
22417;SDS011;11376;50.932;4.442;2022-08-19T14:30:26;5.05;;;1.10;;
22417;SDS011;11376;50.932;4.442;2022-08-19T14:32:55;5.35;;;0.93;;
22417;SDS011;11376;50.932;4.442;2022-08-19T14:35:23;2.47;;;0.70;;
22417;SDS011;11376;50.932;4.442;2022-08-19T14:37:50;2.10;;;0.80;;
22417;SDS011;11376;50.932;4.442;2022-08-19T14:40:20;1.48;;;0.70;;
22417;SDS011;11376;50.932;4.442;2022-08-19T14:42:50;2.90;;;1.15;;
22417;SDS011;11376;50.932;4.442;2022-08-19T14:45:17;2.58;;;1.05;;
22417;SDS011;11376;50.932;4.442;2022-08-19T14:47:42;3.05;;;1.05;;
22417;SDS011;11376;50.932;4.442;2022-08-19T14:50:09;4.40;;;1.02;;